Sacramento, California
Traffic Map
Current Weather Conditions
Sacramento, California
Clear
Clear

Feels Like: 6°
Wind Chill: Ceiling: Unl
Heat Index: Visibility: 10mi
Dew Point: Wind: 3mph
Humidity: 93% Direction: 310° (NW)
Pressure: 30.26in Gusts: 0mph
Raw Report DataKSAC 101453Z 31003KT 10SM CLR 06/05 A3026 RMK AO2 SLP247 T00610050 53019
Traffic Incident Summary
Active as of:
Severity:
Category:
InformationThere was an issue retrieving the traffic information for this location. Please try a different location or try again shortly.
Advertisements
Track Severe Weather on mobile